F/V Matmaco — FVNS — position and weather

sailwx.info

Track history (hours):
 
Tides and Currents Weather Stations Pressure Air Temp Water Temp Dewpoint Dewpoint Depression Visibility Wind Speed Wind Dir Waves Ship Positions

F/V Matmaco

Last reported at 2017-Jan-12 05:34 UTC. Time now 2017-Jan-16 19:24 UTC.
Position N 47°17' W 002°12'.

Length 20 m.

Type: Other ship. MMSI: 228194000.

Date/timePositionNaut miles runAvg speedWind from/ knotsBaromVisibWave heightAir tempDewpointWater temp
2017-Jan-12 05:34N 47°17' W 002°12'3 2.6
2017-Jan-12 04:31N 47°14' W 002°14'8 8.4
2017-Jan-12 03:33N 47°15' W 002°26'6 5.6
2017-Jan-12 02:33N 47°19' W 002°32'  
2017-Jan-07 06:30N 47°18' W 002°31'0 0.0
2017-Jan-07 05:33N 47°18' W 002°31'0 0.0
2017-Jan-07 04:33N 47°18' W 002°31'0 0.0
2017-Jan-07 03:33N 47°18' W 002°31'3 3.0
2017-Jan-07 02:33N 47°17' W 002°35'9 8.8
2017-Jan-07 01:33N 47°11' W 002°44'9 8.9
2017-Jan-07 00:33N 47°05' W 002°54'10 8.7
2017-Jan-06 23:27N 46°59' W 003°05'4 0.1
2017-Jan-05 00:30N 46°57' W 003°00'9 9.7
2017-Jan-04 23:33N 47°04' W 002°51'10 9.7
2017-Jan-04 22:33N 47°12' W 002°42'10 9.6
2017-Jan-04 21:33N 47°19' W 002°33'2 1.3
2017-Jan-04 20:15N 47°18' W 002°31'4 6.2
2017-Jan-04 19:33N 47°16' W 002°37'9 8.9
2017-Jan-04 18:33N 47°10' W 002°46'9 9.2
2017-Jan-04 17:33N 47°04' W 002°56'21 1.5
2017-Jan-04 03:23N 46°45' W 003°09'22 1.0
2017-Jan-03 05:27N 47°01' W 002°47'7 8.1
2017-Jan-03 04:33N 47°08' W 002°42'8 7.9
2017-Jan-03 03:33N 47°15' W 002°37'5 5.2
2017-Jan-03 02:33N 47°18' W 002°31'  
Track history (hours):
 
Tides and Currents Weather Stations Pressure Air Temp Water Temp Dewpoint Dewpoint Depression Visibility Wind Speed Wind Dir Waves Ship Positions

F/V Matmaco

Last reported at 2017-Jan-12 05:34 UTC. Time now 2017-Jan-16 19:24 UTC.
Position N 47°17' W 002°12'.

Length 20 m.

Type: Other ship. MMSI: 228194000.

Date/timePositionNaut miles runAvg speedWind from/ knotsBaromVisibWave heightAir tempDewpointWater temp
2017-Jan-12 05:34N 47°17' W 002°12'3 2.6
2017-Jan-12 04:31N 47°14' W 002°14'8 8.4
2017-Jan-12 03:33N 47°15' W 002°26'6 5.6
2017-Jan-12 02:33N 47°19' W 002°32'  
2017-Jan-07 06:30N 47°18' W 002°31'0 0.0
2017-Jan-07 05:33N 47°18' W 002°31'0 0.0
2017-Jan-07 04:33N 47°18' W 002°31'0 0.0
2017-Jan-07 03:33N 47°18' W 002°31'3 3.0
2017-Jan-07 02:33N 47°17' W 002°35'9 8.8
2017-Jan-07 01:33N 47°11' W 002°44'9 8.9
2017-Jan-07 00:33N 47°05' W 002°54'10 8.7
2017-Jan-06 23:27N 46°59' W 003°05'4 0.1
2017-Jan-05 00:30N 46°57' W 003°00'9 9.7
2017-Jan-04 23:33N 47°04' W 002°51'10 9.7
2017-Jan-04 22:33N 47°12' W 002°42'10 9.6
2017-Jan-04 21:33N 47°19' W 002°33'2 1.3
2017-Jan-04 20:15N 47°18' W 002°31'4 6.2
2017-Jan-04 19:33N 47°16' W 002°37'9 8.9
2017-Jan-04 18:33N 47°10' W 002°46'9 9.2
2017-Jan-04 17:33N 47°04' W 002°56'21 1.5
2017-Jan-04 03:23N 46°45' W 003°09'22 1.0
2017-Jan-03 05:27N 47°01' W 002°47'7 8.1
2017-Jan-03 04:33N 47°08' W 002°42'8 7.9
2017-Jan-03 03:33N 47°15' W 002°37'5 5.2
2017-Jan-03 02:33N 47°18' W 002°31'  

Dump ship's entire track history